Time;durP1;ratioP1;P1;durP2;ratioP2;P2;SDS_P1;SDS_P2;PMS_P1;PMS_P2;Temp;Humidity;BMP_temperature;BMP_pressure;BME280_temperature;BME280_humidity;BME280_pressure;Samples;Min_cycle;Max_cycle;Signal;HPM_P1;HPM_P2
2021/10/16 00:00:30;;;;;;;987.10;910.20;;;3.20;99.90;;;;;;5074781;28;20465;-87
2021/10/16 00:02:57;;;;;;;980.17;903.10;;;3.20;99.90;;;;;;5074558;28;20461;-88
2021/10/16 00:05:24;;;;;;;986.90;909.20;;;3.10;99.90;;;;;;5063303;28;20852;-88
2021/10/16 00:07:51;;;;;;;992.60;914.40;;;3.00;99.90;;;;;;5074636;28;20573;-89
2021/10/16 00:10:17;;;;;;;991.87;913.40;;;3.10;99.90;;;;;;5074750;28;20508;-88
2021/10/16 00:12:44;;;;;;;988.67;910.97;;;3.10;99.90;;;;;;5073790;28;20543;-89
2021/10/16 00:15:13;;;;;;;997.47;919.93;;;3.20;99.90;;;;;;5074541;28;20945;-88
2021/10/16 00:17:40;;;;;;;980.87;904.17;;;3.20;99.90;;;;;;5074442;28;20455;-86
2021/10/16 00:20:09;;;;;;;986.80;909.90;;;3.20;99.90;;;;;;5074538;28;20537;-88
2021/10/16 00:22:36;;;;;;;985.67;908.60;;;3.10;99.90;;;;;;5074397;28;20494;-86
2021/10/16 00:25:03;;;;;;;996.47;918.87;;;3.00;99.90;;;;;;5074480;28;20482;-87
2021/10/16 00:27:30;;;;;;;988.73;911.80;;;2.90;99.90;;;;;;5072439;28;20525;-88
2021/10/16 00:29:58;;;;;;;989.87;912.23;;;2.80;99.90;;;;;;5073989;28;20490;-88
2021/10/16 00:32:27;;;;;;;997.10;919.80;;;2.80;99.90;;;;;;5074485;28;20476;-88
2021/10/16 00:34:54;;;;;;;996.57;917.43;;;2.80;99.90;;;;;;5074349;28;20481;-87
2021/10/16 00:37:24;;;;;;;995.67;918.17;;;2.90;99.90;;;;;;5073953;28;20454;-88
2021/10/16 00:39:51;;;;;;;992.90;915.20;;;2.80;99.90;;;;;;5074172;28;20465;-88
2021/10/16 00:42:20;;;;;;;1007.83;929.90;;;2.80;99.90;;;;;;5072911;28;20446;-87
2021/10/16 00:44:47;;;;;;;995.07;918.23;;;2.80;99.90;;;;;;5073903;28;20458;-88
2021/10/16 00:47:14;;;;;;;986.27;910.20;;;2.80;99.90;;;;;;5073918;28;20486;-89
2021/10/16 00:49:42;;;;;;;990.30;914.13;;;2.60;99.90;;;;;;5073874;28;20512;-88
2021/10/16 00:52:09;;;;;;;997.47;919.00;;;2.50;99.90;;;;;;5073500;28;20542;-87
2021/10/16 00:54:36;;;;;;;1002.80;923.37;;;2.60;99.90;;;;;;5073781;28;20862;-88
2021/10/16 00:57:04;;;;;;;1013.27;934.53;;;2.50;99.90;;;;;;5073652;28;20895;-88
2021/10/16 00:59:31;;;;;;;1007.57;929.43;;;2.60;99.90;;;;;;5072799;28;20523;-89
2021/10/16 01:01:58;;;;;;;1001.03;923.87;;;2.60;99.90;;;;;;5073801;28;20545;-89
2021/10/16 01:04:26;;;;;;;1005.77;927.47;;;2.70;99.90;;;;;;5061981;28;20543;-89
2021/10/16 01:06:55;;;;;;;1001.17;923.17;;;2.60;99.90;;;;;;5053390;28;20482;-88
2021/10/16 01:09:22;;;;;;;1003.83;926.57;;;2.60;99.90;;;;;;5053538;28;20829;-88
2021/10/16 01:11:51;;;;;;;998.97;921.87;;;2.70;99.90;;;;;;5053536;28;20459;-88
2021/10/16 01:14:18;;;;;;;1007.37;927.67;;;2.60;99.90;;;;;;5052446;28;20521;-87
2021/10/16 01:16:49;;;;;;;1000.13;923.10;;;2.60;99.90;;;;;;5053460;28;20553;-88
2021/10/16 01:19:18;;;;;;;999.60;921.47;;;2.70;99.90;;;;;;5053293;28;20955;-88
2021/10/16 01:21:48;;;;;;;992.47;915.07;;;2.80;99.90;;;;;;5053360;28;20462;-89
2021/10/16 01:24:17;;;;;;;994.17;918.30;;;2.80;99.90;;;;;;5053439;28;20483;-88
2021/10/16 01:26:48;;;;;;;989.17;914.23;;;2.90;99.90;;;;;;5053205;28;20594;-88
2021/10/16 01:29:18;;;;;;;991.47;916.07;;;2.80;99.90;;;;;;5052126;28;21044;-89
2021/10/16 01:31:45;;;;;;;992.27;917.43;;;2.70;99.90;;;;;;5052659;28;20847;-88
2021/10/16 01:34:12;;;;;;;999.20;923.47;;;2.40;99.90;;;;;;5053201;28;20455;-86
2021/10/16 01:36:40;;;;;;;1002.20;924.93;;;2.40;99.90;;;;;;5053112;28;20466;-87
2021/10/16 01:39:09;;;;;;;1000.33;923.27;;;2.30;99.90;;;;;;5052108;28;20491;-89
2021/10/16 01:41:37;;;;;;;998.60;920.63;;;2.40;99.90;;;;;;5053222;28;20465;-88
2021/10/16 01:44:05;;;;;;;1003.90;925.30;;;2.40;99.90;;;;;;5051787;28;20465;-87
2021/10/16 01:46:32;;;;;;;1013.77;935.77;;;2.50;99.90;;;;;;5052903;28;20458;-88
2021/10/16 01:48:59;;;;;;;1014.37;934.83;;;2.50;99.90;;;;;;5053050;28;20486;-88
2021/10/16 01:51:26;;;;;;;1010.93;931.83;;;2.50;99.90;;;;;;5052944;28;20452;-87
2021/10/16 01:53:53;;;;;;;1008.97;928.93;;;2.50;99.90;;;;;;5052692;28;20483;-88
2021/10/16 01:56:21;;;;;;;1003.77;923.73;;;2.60;99.90;;;;;;5052718;28;20452;-87
2021/10/16 01:58:48;;;;;;;1018.60;937.73;;;2.60;99.90;;;;;;5051545;28;20550;-88
2021/10/16 02:01:15;;;;;;;1010.67;929.73;;;2.60;99.90;;;;;;5052690;28;20451;-89
2021/10/16 02:03:42;;;;;;;1030.77;946.73;;;2.40;99.90;;;;;;5058433;28;20508;-88
2021/10/16 02:06:09;;;;;;;1026.33;943.77;;;2.70;99.90;;;;;;5072893;28;20464;-89
2021/10/16 02:08:37;;;;;;;1014.97;933.87;;;2.90;99.90;;;;;;5072629;28;20489;-89
2021/10/16 02:11:04;;;;;;;1026.37;944.40;;;2.90;99.90;;;;;;5072652;28;20501;-88
2021/10/16 02:13:35;;;;;;;1019.37;938.70;;;2.80;99.90;;;;;;5071726;28;20458;-87
2021/10/16 02:16:02;;;;;;;1019.70;938.57;;;2.80;99.90;;;;;;5072690;28;20450;-88
2021/10/16 02:18:29;;;;;;;1028.40;946.63;;;2.70;99.90;;;;;;5072622;28;20516;-87
2021/10/16 02:20:56;;;;;;;1026.43;944.60;;;2.70;99.90;;;;;;5072427;28;20461;-89
2021/10/16 02:23:23;;;;;;;1032.77;951.17;;;2.80;99.90;;;;;;5072601;28;20858;-89
2021/10/16 02:25:50;;;;;;;1018.80;938.87;;;2.90;99.90;;;;;;5072477;28;20541;-88
2021/10/16 02:28:17;;;;;;;1023.63;942.93;;;3.00;99.90;;;;;;5071274;28;21185;-89
2021/10/16 02:30:45;;;;;;;1018.27;938.30;;;2.80;99.90;;;;;;5072314;28;20978;-87
2021/10/16 02:33:12;;;;;;;1023.83;943.83;;;2.60;99.90;;;;;;5072675;28;20551;-88
2021/10/16 02:35:39;;;;;;;1022.77;941.63;;;2.60;99.90;;;;;;5072602;28;20450;-88
2021/10/16 02:38:08;;;;;;;1029.70;948.13;;;2.60;99.90;;;;;;5072486;28;20493;-88
2021/10/16 02:40:35;;;;;;;1021.07;938.90;;;2.40;99.90;;;;;;5072091;28;20459;-88
2021/10/16 02:43:03;;;;;;;1024.97;942.50;;;2.20;99.90;;;;;;5071189;28;20937;-88
2021/10/16 02:45:30;;;;;;;1022.43;940.97;;;2.60;99.90;;;;;;5072426;28;20454;-89
2021/10/16 02:47:58;;;;;;;1038.63;954.20;;;2.60;99.90;;;;;;5072155;28;20490;-87
2021/10/16 02:50:25;;;;;;;1042.20;957.57;;;2.50;99.90;;;;;;5073722;28;20460;-88
2021/10/16 02:52:52;;;;;;;1047.77;962.77;;;2.50;99.90;;;;;;5076289;28;20519;-85
2021/10/16 02:55:19;;;;;;;1041.03;955.83;;;2.50;99.90;;;;;;5075888;28;20984;-89
2021/10/16 02:57:46;;;;;;;1024.93;940.33;;;2.30;99.90;;;;;;5074881;28;21045;-88
2021/10/16 03:00:14;;;;;;;1030.20;946.10;;;2.40;99.90;;;;;;5075848;28;21252;-87
2021/10/16 03:02:41;;;;;;;1035.37;951.07;;;2.40;99.90;;;;;;5075665;28;20490;-88
2021/10/16 03:05:11;;;;;;;1029.53;947.47;;;2.50;99.90;;;;;;5064510;28;20472;-87
2021/10/16 03:07:41;;;;;;;1034.33;950.90;;;2.20;99.90;;;;;;5075503;28;20478;-88
2021/10/16 03:10:09;;;;;;;1029.63;946.53;;;2.10;99.90;;;;;;5076034;28;20818;-88
2021/10/16 03:12:36;;;;;;;1044.90;961.50;;;2.10;99.90;;;;;;5074627;28;20455;-88
2021/10/16 03:15:03;;;;;;;1036.97;953.77;;;2.00;99.90;;;;;;5075654;28;20447;-88
2021/10/16 03:17:30;;;;;;;1041.03;958.90;;;1.90;99.90;;;;;;5075598;28;20462;-87
2021/10/16 03:19:57;;;;;;;1034.93;951.73;;;1.80;99.90;;;;;;5075582;28;20539;-87
2021/10/16 03:22:29;;;;;;;1037.00;953.67;;;1.80;99.90;;;;;;5075453;28;20512;-87
2021/10/16 03:24:56;;;;;;;1041.70;957.33;;;1.90;99.90;;;;;;5075770;28;20950;-88
2021/10/16 03:27:22;;;;;;;1042.17;957.50;;;1.90;99.90;;;;;;5074274;28;20474;-87
2021/10/16 03:29:49;;;;;;;1023.70;940.03;;;2.20;99.90;;;;;;5075523;28;20504;-88
2021/10/16 03:32:16;;;;;;;1018.67;935.87;;;2.00;99.90;;;;;;5075437;28;20463;-87
2021/10/16 03:34:43;;;;;;;1030.83;947.23;;;2.00;99.90;;;;;;5075527;28;20896;-88
2021/10/16 03:37:13;;;;;;;1033.10;948.33;;;1.90;99.90;;;;;;5075465;28;20455;-87
2021/10/16 03:39:41;;;;;;;1041.20;955.33;;;1.80;99.90;;;;;;5075251;28;20557;-88
2021/10/16 03:42:08;;;;;;;1046.63;960.70;;;2.10;99.90;;;;;;5075328;28;20542;-87
2021/10/16 03:44:35;;;;;;;1033.33;948.23;;;2.10;99.90;;;;;;5074121;28;20463;-87
2021/10/16 03:47:02;;;;;;;1040.40;955.53;;;2.10;99.90;;;;;;5075191;28;20454;-85
2021/10/16 03:49:29;;;;;;;1037.53;953.60;;;2.10;99.90;;;;;;5075007;28;20541;-87
2021/10/16 03:51:56;;;;;;;1028.27;944.87;;;2.10;99.90;;;;;;5074838;28;20450;-88
2021/10/16 03:54:23;;;;;;;1034.50;951.30;;;2.00;99.90;;;;;;5075121;28;20455;-87
2021/10/16 03:56:51;;;;;;;1038.07;953.53;;;2.00;99.90;;;;;;5075010;28;21012;-87
2021/10/16 03:59:21;;;;;;;1046.07;960.87;;;1.90;99.90;;;;;;5073780;28;21000;-83
2021/10/16 04:01:54;;;;;;;1045.93;961.27;;;1.90;99.90;;;;;;5073738;28;20933;-85
2021/10/16 04:04:21;;;;;;;1050.13;966.10;;;1.90;99.90;;;;;;5063903;28;20813;-84
2021/10/16 04:06:48;;;;;;;1044.87;961.50;;;1.90;99.90;;;;;;5054800;28;20516;-84
2021/10/16 04:09:16;;;;;;;1038.03;953.23;;;2.10;99.90;;;;;;5054478;28;21053;-88
2021/10/16 04:11:44;;;;;;;1047.27;961.60;;;2.20;99.90;;;;;;5054659;28;20462;-85
2021/10/16 04:14:12;;;;;;;1045.60;961.30;;;2.40;99.90;;;;;;5053770;28;20458;-88
2021/10/16 04:16:39;;;;;;;1039.30;955.53;;;2.30;99.90;;;;;;5054303;28;20455;-88
2021/10/16 04:19:06;;;;;;;1043.53;960.47;;;2.20;99.90;;;;;;5054519;28;20969;-87
2021/10/16 04:21:33;;;;;;;1049.97;965.60;;;2.20;99.90;;;;;;5054448;28;20462;-85
2021/10/16 04:24:00;;;;;;;1047.63;963.73;;;2.10;99.90;;;;;;5054353;28;20459;-89
2021/10/16 04:26:27;;;;;;;1045.10;960.73;;;2.00;99.90;;;;;;5054227;28;20464;-87
2021/10/16 04:28:54;;;;;;;1052.27;967.37;;;2.00;99.90;;;;;;5053078;28;20483;-89
2021/10/16 04:31:23;;;;;;;1051.53;966.13;;;1.80;99.90;;;;;;5054274;28;20912;-89
2021/10/16 04:33:51;;;;;;;1048.00;962.30;;;1.80;99.90;;;;;;5054398;28;20455;-88
2021/10/16 04:36:18;;;;;;;1037.10;952.37;;;1.70;99.90;;;;;;5054228;28;20903;-89
2021/10/16 04:38:49;;;;;;;1044.60;960.87;;;1.60;99.90;;;;;;5067823;28;20822;-87
2021/10/16 04:41:16;;;;;;;1042.80;959.53;;;1.80;99.90;;;;;;5082353;28;20454;-89
2021/10/16 04:43:44;;;;;;;1051.47;967.47;;;1.70;99.90;;;;;;5072946;28;20465;-89
2021/10/16 04:46:14;;;;;;;1047.27;964.37;;;1.60;99.90;;;;;;5073929;28;20549;-89
2021/10/16 04:48:44;;;;;;;1052.20;968.60;;;1.70;99.90;;;;;;5074010;28;20529;-87
2021/10/16 04:51:11;;;;;;;1042.97;960.17;;;1.50;99.90;;;;;;5073867;28;20486;-87
2021/10/16 04:53:42;;;;;;;1036.77;954.73;;;1.50;99.90;;;;;;5073895;28;20439;-90
2021/10/16 04:56:09;;;;;;;1040.37;958.23;;;1.40;99.90;;;;;;5073796;28;20481;-87
2021/10/16 04:58:36;;;;;;;1043.00;960.40;;;1.30;99.90;;;;;;5072595;28;21013;-91
2021/10/16 05:01:03;;;;;;;1037.37;954.90;;;1.40;99.90;;;;;;5073591;28;20498;-83
2021/10/16 05:03:39;;;;;;;1030.90;949.40;;;1.30;99.90;;;;;;5069745;28;20462;-89
2021/10/16 05:06:07;;;;;;;1039.87;958.87;;;1.30;99.90;;;;;;5053698;28;20464;-90
2021/10/16 05:08:44;;;;;;;1040.97;960.23;;;1.30;99.90;;;;;;5053313;28;20517;-88
2021/10/16 05:11:11;;;;;;;1038.37;957.60;;;1.30;99.90;;;;;;5053583;28;20541;-87
2021/10/16 05:13:38;;;;;;;1040.17;957.63;;;1.40;99.90;;;;;;5052210;28;20513;-88
2021/10/16 05:16:05;;;;;;;1039.70;957.97;;;1.30;99.90;;;;;;5053348;28;20546;-88
2021/10/16 05:18:33;;;;;;;1033.17;950.50;;;1.50;99.90;;;;;;5053425;28;20466;-90
2021/10/16 05:21:00;;;;;;;1035.38;952.42;;;1.50;99.90;;;;;;5053576;28;20473;-89
2021/10/16 05:23:30;;;;;;;1049.47;965.90;;;1.50;99.90;;;;;;5053253;28;20197;-87
2021/10/16 05:25:57;;;;;;;1049.87;966.20;;;1.50;99.90;;;;;;5053544;28;20860;-88
2021/10/16 05:28:24;;;;;;;1049.20;965.33;;;1.50;99.90;;;;;;5052184;28;20489;-90
2021/10/16 05:30:51;;;;;;;1046.53;963.13;;;1.50;99.90;;;;;;5053070;28;20510;-88
2021/10/16 05:33:18;;;;;;;1052.43;970.73;;;1.40;99.90;;;;;;5053389;28;20463;-91
2021/10/16 05:35:47;;;;;;;1043.73;962.73;;;1.40;99.90;;;;;;5052920;28;20486;-90
2021/10/16 05:38:14;;;;;;;1041.03;959.53;;;1.70;99.90;;;;;;5053305;28;20467;-90
2021/10/16 05:40:49;;;;;;;1048.70;967.10;;;1.50;99.90;;;;;;5053101;28;20465;-91
2021/10/16 05:43:16;;;;;;;1045.97;965.27;;;1.60;99.90;;;;;;5052206;28;20470;-91
2021/10/16 05:45:43;;;;;;;1047.83;966.53;;;1.30;99.90;;;;;;5052940;28;21032;-90
2021/10/16 05:48:10;;;;;;;1055.17;971.00;;;1.20;99.90;;;;;;5052746;28;20525;-91
2021/10/16 05:50:46;;;;;;;1060.10;976.80;;;1.40;99.90;;;;;;5052836;28;20597;-92
2021/10/16 05:53:13;;;;;;;1061.40;977.60;;;1.40;99.90;;;;;;5066934;28;20542;-90
2021/10/16 05:55:41;;;;;;;1069.27;983.63;;;1.40;99.90;;;;;;5072893;28;20457;-92
2021/10/16 05:58:08;;;;;;;1060.47;975.23;;;1.40;99.90;;;;;;5071830;28;20496;-92
2021/10/16 06:00:35;;;;;;;1063.10;975.80;;;1.50;99.90;;;;;;5072927;28;20442;-92
2021/10/16 06:03:02;;;;;;;1055.90;973.10;;;1.60;99.90;;;;;;5072995;28;20841;-92
2021/10/16 06:05:35;;;;;;;1061.37;978.30;;;1.70;99.90;;;;;;5061647;28;20468;-85
2021/10/16 06:08:07;;;;;;;1058.33;974.80;;;1.70;99.90;;;;;;5072995;28;20873;-90
2021/10/16 06:10:38;;;;;;;1055.20;971.47;;;1.70;99.90;;;;;;5072917;28;20545;-87
2021/10/16 06:13:13;;;;;;;1042.37;958.97;;;1.80;99.90;;;;;;5071558;28;20462;-91
2021/10/16 06:15:41;;;;;;;1026.90;943.47;;;1.60;99.90;;;;;;5072388;28;20481;-87
2021/10/16 06:18:12;;;;;;;1036.57;953.07;;;1.70;99.90;;;;;;5072619;28;20520;-91
2021/10/16 06:20:43;;;;;;;1046.63;962.00;;;1.70;99.90;;;;;;5072653;28;20450;-90
2021/10/16 06:23:09;;;;;;;1042.67;959.50;;;1.80;99.90;;;;;;5072860;28;20554;-90
2021/10/16 06:25:39;;;;;;;1042.43;958.43;;;1.80;99.90;;;;;;5074122;28;20446;-91
2021/10/16 06:28:07;;;;;;;1037.50;953.30;;;1.80;99.90;;;;;;5075483;28;20470;-89
2021/10/16 06:30:34;;;;;;;1043.47;958.63;;;1.70;99.90;;;;;;5076524;28;20910;-90
2021/10/16 06:33:01;;;;;;;1036.33;951.47;;;1.90;99.90;;;;;;5076523;28;20478;-89
2021/10/16 06:35:28;;;;;;;1037.17;951.20;;;1.80;99.90;;;;;;5076218;28;20820;-90
2021/10/16 06:37:55;;;;;;;1035.90;949.97;;;1.90;99.90;;;;;;5075959;28;20512;-91
2021/10/16 06:40:25;;;;;;;1038.07;950.77;;;2.00;99.90;;;;;;5076362;28;20451;-91
2021/10/16 06:42:52;;;;;;;1031.77;946.77;;;2.20;99.90;;;;;;5075447;28;20496;-91
2021/10/16 06:45:20;;;;;;;1029.10;944.83;;;2.30;99.90;;;;;;5076136;28;20549;-92
2021/10/16 06:47:47;;;;;;;1034.80;951.40;;;2.30;99.90;;;;;;5076261;28;20454;-89
2021/10/16 06:50:14;;;;;;;1036.20;951.60;;;2.30;99.90;;;;;;5076187;28;20585;-91
2021/10/16 06:52:41;;;;;;;1027.37;942.73;;;2.30;99.90;;;;;;5076245;28;20446;-92
2021/10/16 06:55:27;;;;;;;1027.03;942.80;;;2.40;99.90;;;;;;5077265;28;20473;-90
2021/10/16 06:57:54;;;;;;;1043.03;956.93;;;2.60;99.90;;;;;;5040058;28;20876;-91
2021/10/16 07:00:23;;;;;;;1042.60;956.60;;;2.60;99.90;;;;;;5076135;28;20541;-89
2021/10/16 07:02:50;;;;;;;1022.77;937.53;;;2.80;99.90;;;;;;5075747;28;20499;-88
2021/10/16 07:05:28;;;;;;;1031.70;946.57;;;2.80;99.90;;;;;;5075642;28;20450;-86
2021/10/16 07:11:46;;;;;;;1029.67;944.27;;;3.10;99.90;;;;;;5075863;28;20549;-88
2021/10/16 07:14:41;;;;;;;1026.60;940.90;;;3.30;99.90;;;;;;5071532;28;20520;-89
2021/10/16 07:17:39;;;;;;;;;;;;;;;;;;;;;
2021/10/16 07:20:25;;;;;;;;;;;;;;;;;;;;;
2021/10/16 07:23:03;;;;;;;1002.97;917.37;;;3.60;99.90;;;;;;5076959;28;20450;-88
2021/10/16 07:25:30;;;;;;;1013.33;926.83;;;3.60;99.90;;;;;;5075953;28;20454;-88
2021/10/16 07:28:02;;;;;;;1013.73;927.37;;;3.70;99.90;;;;;;5074789;28;20486;-90
2021/10/16 07:30:29;;;;;;;1005.83;919.30;;;3.80;99.90;;;;;;5075006;28;20490;-90
2021/10/16 07:33:03;;;;;;;1003.60;917.30;;;3.90;99.90;;;;;;5075677;28;20481;-89
2021/10/16 07:35:30;;;;;;;984.17;899.27;;;4.10;99.90;;;;;;5075312;28;20452;-88
2021/10/16 07:37:57;;;;;;;980.67;895.03;;;4.40;99.90;;;;;;5075399;28;20447;-89
2021/10/16 07:40:24;;;;;;;992.10;905.10;;;4.60;99.90;;;;;;5075473;28;20455;-86
2021/10/16 07:42:51;;;;;;;985.87;898.90;;;4.80;99.90;;;;;;5071487;28;20462;-87
2021/10/16 07:45:18;;;;;;;970.83;883.53;;;4.80;99.90;;;;;;5073887;28;20454;-89
2021/10/16 07:47:45;;;;;;;965.57;879.10;;;5.00;99.90;;;;;;5074087;28;20450;-87
2021/10/16 07:50:16;;;;;;;966.63;881.33;;;5.20;99.90;;;;;;5073506;28;21067;-85
2021/10/16 07:52:43;;;;;;;961.87;876.47;;;5.30;99.90;;;;;;5073801;28;20549;-87
2021/10/16 07:55:10;;;;;;;957.10;871.67;;;5.30;99.90;;;;;;5073842;28;20501;-85
2021/10/16 07:57:51;;;;;;;952.87;868.20;;;5.50;99.90;;;;;;5072618;28;20458;-85
2021/10/16 08:00:18;;;;;;;943.70;859.10;;;5.60;99.90;;;;;;5073599;28;20996;-87
2021/10/16 08:02:46;;;;;;;944.00;858.67;;;5.80;99.90;;;;;;5073460;28;20972;-86
2021/10/16 08:05:17;;;;;;;938.43;854.30;;;5.90;99.90;;;;;;5073232;28;20957;-83
2021/10/16 08:07:46;;;;;;;924.67;843.77;;;6.00;99.90;;;;;;5073642;28;20550;-84
2021/10/16 08:10:14;;;;;;;918.37;838.97;;;6.10;99.90;;;;;;5073316;28;20915;-86
2021/10/16 08:12:42;;;;;;;914.53;834.97;;;6.20;99.90;;;;;;5072547;28;20921;-85
2021/10/16 08:15:26;;;;;;;907.60;829.27;;;6.30;99.90;;;;;;5073610;28;20490;-86
2021/10/16 08:17:57;;;;;;;904.27;826.17;;;6.50;99.90;;;;;;5073417;28;20462;-85
2021/10/16 08:20:24;;;;;;;902.33;826.70;;;6.60;99.90;;;;;;5072999;28;20511;-86
2021/10/16 08:22:56;;;;;;;899.57;825.67;;;6.80;99.90;;;;;;5073114;28;20870;-86
2021/10/16 08:25:23;;;;;;;899.63;824.13;;;6.90;99.90;;;;;;5073250;28;20450;-86
2021/10/16 08:27:50;;;;;;;896.17;822.77;;;7.10;99.90;;;;;;5072114;28;20475;-87
2021/10/16 08:30:39;;;;;;;891.37;819.57;;;7.00;99.90;;;;;;5072791;28;20497;-87
2021/10/16 08:33:25;;;;;;;;;;;;;;;;;;;;;
2021/10/16 08:35:53;;;;;;;879.70;809.30;;;7.40;99.90;;;;;;5067462;28;20442;-83
2021/10/16 08:38:39;;;;;;;866.73;799.67;;;7.50;99.90;;;;;;5073144;28;20511;-85
2021/10/16 08:41:09;;;;;;;884.40;819.20;;;7.60;99.90;;;;;;5073068;28;20469;-85
2021/10/16 08:43:36;;;;;;;870.27;809.57;;;7.90;99.90;;;;;;5071780;28;20573;-85
2021/10/16 08:46:04;;;;;;;858.33;800.47;;;8.00;99.90;;;;;;5072883;28;20512;-85
2021/10/16 08:48:31;;;;;;;826.37;774.63;;;8.20;99.90;;;;;;5072037;28;20507;-86
2021/10/16 08:50:59;;;;;;;756.33;713.70;;;8.30;99.90;;;;;;5085468;28;20995;-84
2021/10/16 08:53:27;;;;;;;764.03;720.23;;;8.30;99.90;;;;;;5092857;28;20519;-85
2021/10/16 08:55:55;;;;;;;691.73;654.33;;;8.60;99.90;;;;;;5092175;28;20545;-86
2021/10/16 08:58:27;;;;;;;684.23;648.40;;;8.80;99.90;;;;;;5091821;28;20560;-85
2021/10/16 09:00:55;;;;;;;745.50;703.90;;;8.90;99.90;;;;;;5092651;28;20457;-85
2021/10/16 09:03:25;;;;;;;582.97;554.43;;;9.10;99.90;;;;;;5093211;28;20449;-85
2021/10/16 09:06:06;;;;;;;419.40;401.00;;;9.10;99.90;;;;;;5094032;28;20452;-85
2021/10/16 09:08:34;;;;;;;265.43;254.57;;;9.30;99.90;;;;;;5094059;28;20837;-85
2021/10/16 09:11:20;;;;;;;309.20;295.37;;;9.20;99.90;;;;;;5093800;28;20477;-85
2021/10/16 09:13:50;;;;;;;98.68;92.75;;;9.50;99.90;;;;;;5092168;28;20456;-85
2021/10/16 09:16:37;;;;;;;86.67;79.90;;;9.70;99.90;;;;;;5093642;28;20290;-85
2021/10/16 09:19:13;;;;;;;91.70;86.60;;;9.80;99.90;;;;;;5093442;28;20465;-85
2021/10/16 09:21:43;;;;;;;58.67;54.03;;;9.90;99.90;;;;;;5093655;28;20450;-85
2021/10/16 09:24:22;;;;;;;45.20;41.70;;;10.10;99.90;;;;;;5093544;28;20491;-81
2021/10/16 09:26:53;;;;;;;39.87;32.57;;;10.40;99.90;;;;;;5093418;28;20471;-82
2021/10/16 09:29:25;;;;;;;35.50;31.90;;;10.60;99.90;;;;;;5091832;28;20481;-84
2021/10/16 09:31:54;;;;;;;31.63;28.23;;;10.70;99.90;;;;;;5093292;28;20477;-81
2021/10/16 09:34:31;;;;;;;21.43;16.97;;;11.00;99.90;;;;;;5093571;28;20520;-84
2021/10/16 09:37:06;;;;;;;24.70;15.43;;;11.00;99.90;;;;;;5093292;28;20956;-82
2021/10/16 09:39:34;;;;;;;38.20;24.10;;;11.20;98.10;;;;;;5093376;28;20485;-81
2021/10/16 09:42:03;;;;;;;36.63;21.30;;;11.40;98.50;;;;;;5093113;28;20497;-82
2021/10/16 09:44:32;;;;;;;30.77;18.63;;;11.60;96.90;;;;;;5092009;28;20461;-82
2021/10/16 09:47:06;;;;;;;42.60;20.50;;;11.70;94.60;;;;;;5093133;28;20876;-82
2021/10/16 09:49:35;;;;;;;42.37;20.53;;;11.60;93.50;;;;;;5093027;28;20556;-84
2021/10/16 09:52:04;;;;;;;35.00;17.33;;;12.00;96.30;;;;;;5093176;28;20855;-83
2021/10/16 09:54:34;;;;;;;44.10;21.17;;;11.90;94.10;;;;;;5092630;28;20970;-84
2021/10/16 09:57:05;;;;;;;43.17;21.10;;;12.20;91.60;;;;;;5093116;28;20450;-82
2021/10/16 09:59:33;;;;;;;43.73;22.97;;;12.20;91.90;;;;;;5091412;28;20964;-84
2021/10/16 10:02:02;;;;;;;48.30;26.23;;;12.20;94.00;;;;;;5092864;28;20917;-85
2021/10/16 10:04:32;;;;;;;48.60;26.47;;;12.40;91.00;;;;;;5092838;28;20553;-83
2021/10/16 10:07:02;;;;;;;51.80;26.80;;;12.30;90.30;;;;;;5092825;28;20485;-84
2021/10/16 10:09:31;;;;;;;47.70;26.03;;;12.80;92.10;;;;;;5092891;28;20478;-87
2021/10/16 10:11:59;;;;;;;52.53;26.37;;;14.10;81.70;;;;;;5093993;28;20446;-89
2021/10/16 10:14:28;;;;;;;60.63;33.73;;;14.10;75.10;;;;;;5091770;28;20507;-88
2021/10/16 10:25:36;;;;;;;85.20;34.10;;;14.10;70.30;;;;;;5244559;22;20499;-87
2021/10/16 10:28:07;;;;;;;70.33;31.90;;;13.20;69.00;;;;;;5032686;28;20489;-87
2021/10/16 10:30:51;;;;;;;98.53;40.83;;;13.30;69.30;;;;;;5032623;28;20482;-83
2021/10/16 10:33:22;;;;;;;91.53;38.43;;;12.80;69.60;;;;;;5032472;28;20947;-81
2021/10/16 10:35:52;;;;;;;86.40;36.37;;;13.10;71.90;;;;;;5032539;28;20464;-85
2021/10/16 10:38:35;;;;;;;86.70;38.47;;;13.20;68.40;;;;;;5032354;28;20453;-84
2021/10/16 10:41:35;;;;;;;93.87;39.97;;;12.80;68.90;;;;;;5032386;28;20445;-83
2021/10/16 10:44:07;;;;;;;63.07;27.77;;;13.50;68.50;;;;;;5031540;28;20453;-84
2021/10/16 10:46:35;;;;;;;50.27;21.87;;;13.20;66.10;;;;;;5032328;28;20453;-83
2021/10/16 10:49:14;;;;;;;51.63;23.63;;;13.40;69.40;;;;;;5032663;28;20456;-84
2021/10/16 10:51:41;;;;;;;63.43;26.87;;;13.30;67.90;;;;;;5032208;28;20547;-83
2021/10/16 10:54:15;;;;;;;52.70;23.23;;;13.80;68.40;;;;;;5032304;28;20939;-83
2021/10/16 10:56:46;;;;;;;51.40;21.43;;;13.70;64.40;;;;;;5032341;28;20549;-83
2021/10/16 10:59:19;;;;;;;62.40;26.60;;;13.40;66.10;;;;;;5031257;28;20514;-85
2021/10/16 11:02:00;;;;;;;64.32;27.90;;;13.60;64.30;;;;;;5031803;28;20464;-85
2021/10/16 11:04:51;;;;;;;59.87;24.40;;;14.40;63.50;;;;;;5023401;28;20249;-84
2021/10/16 11:07:34;;;;;;;39.17;20.50;;;14.70;57.10;;;;;;5012734;28;20851;-85
2021/10/16 11:10:01;;;;;;;47.27;23.17;;;16.00;52.00;;;;;;5030542;28;20519;-84
2021/10/16 11:12:39;;;;;;;53.37;36.00;;;16.60;48.20;;;;;;5033956;28;20457;-84
2021/10/16 11:15:07;;;;;;;53.23;38.33;;;16.90;44.10;;;;;;5035668;28;20539;-85
2021/10/16 11:17:53;;;;;;;55.83;36.00;;;17.20;41.30;;;;;;5035082;28;20881;-84
2021/10/16 11:20:29;;;;;;;51.50;35.63;;;17.30;40.30;;;;;;5032838;28;20471;-84
2021/10/16 11:22:57;;;;;;;60.53;37.77;;;16.50;40.60;;;;;;5034499;28;20477;-84
2021/10/16 11:25:41;;;;;;;51.40;34.83;;;17.70;39.60;;;;;;5034251;28;20498;-85
2021/10/16 11:28:14;;;;;;;49.17;30.43;;;17.40;38.20;;;;;;5033214;28;20815;-84
2021/10/16 11:30:54;;;;;;;45.40;32.77;;;17.60;39.50;;;;;;5034202;28;20522;-84
2021/10/16 11:34:12;;;;;;;;;;;;;;;;;;;;;
2021/10/16 11:36:49;;;;;;;37.77;25.33;;;18.90;27.70;;;;;;5034450;28;20529;-84
2021/10/16 11:39:37;;;;;;;43.47;26.20;;;18.90;28.40;;;;;;5035339;28;20552;-83
2021/10/16 11:42:07;;;;;;;33.83;25.03;;;19.20;28.40;;;;;;5035336;28;20455;-84
2021/10/16 11:44:34;;;;;;;42.43;28.70;;;19.30;26.50;;;;;;5034177;28;20466;-85
2021/10/16 11:47:05;;;;;;;48.37;33.60;;;19.40;28.20;;;;;;5034931;28;20459;-83
2021/10/16 11:49:33;;;;;;;63.47;48.67;;;19.00;26.30;;;;;;5035136;28;20538;-84
2021/10/16 11:52:36;;;;;;;52.73;38.33;;;19.20;28.20;;;;;;5035134;28;20494;-84
2021/10/16 11:55:41;;;;;;;61.17;42.67;;;18.50;29.30;;;;;;5035011;28;20479;-87
2021/10/16 11:58:16;;;;;;;81.00;50.00;;;18.30;28.60;;;;;;5020340;28;20464;-83
2021/10/16 12:00:47;;;;;;;45.30;29.23;;;17.50;26.90;;;;;;5015109;28;20502;-83
2021/10/16 12:03:19;;;;;;;30.40;17.10;;;17.00;30.10;;;;;;5014826;28;20446;-84
2021/10/16 12:05:55;;;;;;;30.13;18.30;;;16.90;29.00;;;;;;5014984;28;20481;-84
2021/10/16 12:08:26;;;;;;;44.70;30.50;;;16.50;32.10;;;;;;5015011;28;20465;-83
2021/10/16 12:10:55;;;;;;;48.30;28.93;;;15.80;31.40;;;;;;5014965;28;20526;-83
2021/10/16 12:13:34;;;;;;;29.03;16.20;;;15.50;31.20;;;;;;5013791;28;20502;-83
2021/10/16 12:16:21;;;;;;;27.93;16.30;;;15.40;31.00;;;;;;5014904;28;20463;-83
2021/10/16 12:19:11;;;;;;;27.93;15.57;;;15.10;35.40;;;;;;5014921;28;20541;-85
2021/10/16 12:21:55;;;;;;;28.83;15.07;;;14.40;43.30;;;;;;5014819;28;20466;-84
2021/10/16 12:24:35;;;;;;;23.40;13.00;;;14.30;48.00;;;;;;5013997;28;20515;-85
2021/10/16 12:30:28;;;;;;;25.50;11.13;;;13.80;48.80;;;;;;5008809;28;20528;-85
2021/10/16 12:33:23;;;;;;;26.83;10.10;;;13.70;50.30;;;;;;5014529;28;20918;-85
2021/10/16 12:36:07;;;;;;;28.73;10.73;;;13.60;46.80;;;;;;5014493;28;20454;-85
2021/10/16 12:38:49;;;;;;;14.70;8.03;;;13.50;48.60;;;;;;5014454;28;20449;-84
2021/10/16 12:41:32;;;;;;;23.40;7.97;;;13.50;48.70;;;;;;5014336;28;20816;-84
2021/10/16 12:44:30;;;;;;;18.90;8.10;;;13.50;48.10;;;;;;5013208;28;20453;-85
2021/10/16 12:47:17;;;;;;;16.03;7.33;;;13.20;49.90;;;;;;5015594;28;20452;-86
2021/10/16 12:50:00;;;;;;;25.03;8.83;;;13.20;50.20;;;;;;5013864;28;20449;-83
2021/10/16 12:55:33;;;;;;;21.40;8.70;;;13.00;50.90;;;;;;5011221;28;20449;-85
2021/10/16 12:58:28;;;;;;;18.37;7.23;;;12.90;51.40;;;;;;4972921;28;20484;-85